createdAt,value
2019-02-02T00:00:39.505Z,99511.08
2019-02-02T00:03:08.285Z,99517.09
2019-02-02T00:05:36.983Z,99520.53
2019-02-02T00:08:06.458Z,99512.34
2019-02-02T00:10:35.190Z,99512.77
2019-02-02T00:13:03.938Z,99505.89
2019-02-02T00:15:32.680Z,99506.36
2019-02-02T00:18:01.314Z,99502.92
2019-02-02T00:20:30.077Z,99501.14
2019-02-02T00:22:58.716Z,99495.98
2019-02-02T00:25:31.650Z,99498.14
2019-02-02T00:28:00.289Z,99491.27
2019-02-02T00:30:28.910Z,99496.41
2019-02-02T00:32:57.758Z,99488.23
2019-02-02T00:35:26.434Z,99493.84
2019-02-02T00:37:55.110Z,99485.67
2019-02-02T00:40:23.741Z,99485.67
2019-02-02T00:42:52.429Z,99486.47
2019-02-02T00:45:22.278Z,99499.36
2019-02-02T00:47:51.263Z,99483.78
2019-02-02T00:50:21.218Z,99488.11
2019-02-02T00:52:49.807Z,99491.15
2019-02-02T00:55:19.464Z,99496.78
2019-02-02T00:57:53.458Z,99496.35
2019-02-02T01:00:28.943Z,99500.22
2019-02-02T01:02:57.584Z,99498.89
2019-02-02T01:05:30.119Z,99499.27
2019-02-02T01:07:58.802Z,99491.95
2019-02-02T01:10:32.664Z,99498.29
2019-02-02T01:13:01.327Z,99492.16
2019-02-02T01:15:30.109Z,99494.70
2019-02-02T01:17:58.897Z,99496.83
2019-02-02T01:20:27.538Z,99501.55
2019-02-02T01:22:56.175Z,99511.06
2019-02-02T01:25:24.917Z,99493.83
2019-02-02T01:28:04.527Z,99491.30
2019-02-02T01:30:26.410Z,99482.55
2019-02-02T01:32:55.070Z,99482.13
2019-02-02T01:35:26.419Z,99475.84
2019-02-02T01:37:55.107Z,99471.85
2019-02-02T01:40:26.271Z,99475.28
2019-02-02T01:42:55.104Z,99477.52
2019-02-02T01:45:30.168Z,99486.08
2019-02-02T01:47:59.101Z,99486.97
2019-02-02T01:50:28.842Z,99483.56
2019-02-02T01:52:57.579Z,99479.75
2019-02-02T01:55:26.408Z,99477.58
2019-02-02T01:57:55.031Z,99477.16
2019-02-02T02:00:31.804Z,99471.98
2019-02-02T02:03:00.466Z,99481.41
2019-02-02T02:05:29.103Z,99478.74
2019-02-02T02:08:03.562Z,99479.96
2019-02-02T02:10:32.244Z,99475.34
2019-02-02T02:13:00.881Z,99463.27
2019-02-02T02:15:29.562Z,99457.09
2019-02-02T02:17:58.251Z,99464.00
2019-02-02T02:20:27.217Z,99469.12
2019-02-02T02:22:55.855Z,99461.63
2019-02-02T02:25:24.534Z,99471.94
2019-02-02T02:27:53.273Z,99474.06
2019-02-02T02:30:24.621Z,99474.05
2019-02-02T02:32:57.927Z,99480.82
2019-02-02T02:35:26.567Z,99479.14
2019-02-02T02:37:58.006Z,99478.25
2019-02-02T02:40:26.642Z,99471.41
2019-02-02T02:42:55.322Z,99481.64
2019-02-02T02:45:24.001Z,99482.53
2019-02-02T02:47:52.634Z,99479.44
2019-02-02T02:50:22.983Z,99481.96
2019-02-02T02:52:51.652Z,99482.37
2019-02-02T02:55:20.340Z,99482.61
2019-02-02T02:57:48.968Z,99493.81
2019-02-02T03:00:27.918Z,99486.80
2019-02-02T03:02:56.536Z,99494.64
2019-02-02T03:05:25.331Z,99499.95
2019-02-02T03:07:54.901Z,99493.52
2019-02-02T03:10:25.287Z,99498.16
2019-02-02T03:12:54.222Z,99489.73
2019-02-02T03:15:22.902Z,99485.75
2019-02-02T03:17:52.827Z,99488.07
2019-02-02T03:20:24.388Z,99489.02
2019-02-02T03:22:52.966Z,99492.02
2019-02-02T03:25:24.298Z,99485.06
2019-02-02T03:27:52.931Z,99491.52
2019-02-02T03:30:22.502Z,99496.87
2019-02-02T03:32:51.251Z,99489.55
2019-02-02T03:35:22.735Z,99494.32
2019-02-02T03:37:51.570Z,99485.83
2019-02-02T03:40:22.597Z,99484.16
2019-02-02T03:42:51.228Z,99475.48
2019-02-02T03:45:23.980Z,99478.05
2019-02-02T03:47:53.835Z,99472.98
2019-02-02T03:50:22.598Z,99475.50
2019-02-02T03:52:51.251Z,99487.58
2019-02-02T03:55:19.868Z,99488.86
2019-02-02T03:57:48.640Z,99481.94
2019-02-02T04:00:21.807Z,99480.66
2019-02-02T04:02:50.490Z,99484.03
2019-02-02T04:05:31.351Z,99472.50
2019-02-02T04:08:00.027Z,99461.76
2019-02-02T04:10:28.670Z,99469.91
2019-02-02T04:12:57.348Z,99477.31
2019-02-02T04:15:25.981Z,99466.58
2019-02-02T04:17:54.658Z,99466.05
2019-02-02T04:20:23.799Z,99466.25
2019-02-02T04:22:52.536Z,99468.31
2019-02-02T04:25:22.312Z,99472.19
2019-02-02T04:27:51.450Z,99470.03
2019-02-02T04:30:22.601Z,99469.27
2019-02-02T04:32:51.237Z,99472.22
2019-02-02T04:35:20.195Z,99470.01
2019-02-02T04:37:48.916Z,99462.73
2019-02-02T04:40:17.599Z,99469.23
2019-02-02T04:42:46.332Z,99469.23
2019-02-02T04:45:18.708Z,99467.77
2019-02-02T04:47:47.452Z,99475.45
2019-02-02T04:50:18.528Z,99476.08
2019-02-02T04:52:47.203Z,99474.70
2019-02-02T04:55:17.736Z,99474.27
2019-02-02T04:57:46.419Z,99469.64
2019-02-02T05:00:19.053Z,99477.27
2019-02-02T05:02:47.737Z,99466.93
2019-02-02T05:05:18.278Z,99471.14
2019-02-02T05:07:47.102Z,99471.52
2019-02-02T05:10:21.184Z,99467.59
2019-02-02T05:12:50.010Z,99478.50
2019-02-02T05:15:18.592Z,99477.22
2019-02-02T05:17:47.297Z,99475.42
2019-02-02T05:20:18.748Z,99466.53
2019-02-02T05:22:50.170Z,99467.36
2019-02-02T05:25:18.859Z,99474.52
2019-02-02T05:27:47.492Z,99483.92
2019-02-02T05:30:26.242Z,99477.63
2019-02-02T05:32:54.877Z,99476.72
2019-02-02T05:35:23.618Z,99489.75
2019-02-02T05:37:52.261Z,99496.11
2019-02-02T05:40:22.498Z,99493.62
2019-02-02T05:42:52.104Z,99497.91
2019-02-02T05:45:23.107Z,99497.83
2019-02-02T05:47:51.678Z,99503.36
2019-02-02T05:50:22.162Z,99514.95
2019-02-02T05:52:55.232Z,99520.56
2019-02-02T05:55:24.076Z,99529.59
2019-02-02T05:57:54.385Z,99530.42
2019-02-02T06:00:33.503Z,99532.82
2019-02-02T06:03:02.146Z,99529.97
2019-02-02T06:05:30.787Z,99532.28
2019-02-02T06:07:59.462Z,99533.03
2019-02-02T06:10:28.110Z,99541.80
2019-02-02T06:12:56.751Z,99550.39
2019-02-02T06:15:28.430Z,99553.56
2019-02-02T06:17:55.839Z,99551.47
2019-02-02T06:20:24.418Z,99557.50
2019-02-02T06:22:53.157Z,99557.99
2019-02-02T06:25:22.129Z,99558.02
2019-02-02T06:27:53.723Z,99559.37
2019-02-02T06:30:24.151Z,99567.88
2019-02-02T06:32:52.848Z,99573.98
2019-02-02T06:35:21.452Z,99570.20
2019-02-02T06:37:50.053Z,99556.44
2019-02-02T06:40:18.778Z,99561.22
2019-02-02T06:42:47.466Z,99574.16
2019-02-02T06:45:20.303Z,99574.59
2019-02-02T06:47:48.944Z,99572.49
2019-02-02T06:50:18.121Z,99574.27
2019-02-02T06:52:50.926Z,99567.83
2019-02-02T06:55:19.566Z,99567.42
2019-02-02T06:57:48.188Z,99574.77
2019-02-02T07:00:30.846Z,99577.38
2019-02-02T07:02:59.487Z,99579.11
2019-02-02T07:05:28.120Z,99586.84
2019-02-02T07:07:56.769Z,99588.99
2019-02-02T07:10:27.987Z,99591.59
2019-02-02T07:12:56.823Z,99588.96
2019-02-02T07:15:30.119Z,99594.12
2019-02-02T07:17:58.798Z,99593.67
2019-02-02T07:20:27.432Z,99602.28
2019-02-02T07:22:56.061Z,99613.06
2019-02-02T07:25:24.668Z,99615.20
2019-02-02T07:27:53.353Z,99604.87
2019-02-02T07:30:28.722Z,99606.58
2019-02-02T07:32:54.536Z,99602.72
2019-02-02T07:35:24.114Z,99604.89
2019-02-02T07:37:52.842Z,99612.14
2019-02-02T07:40:22.420Z,99619.04
2019-02-02T07:42:51.145Z,99635.34
2019-02-02T07:45:28.407Z,99633.54
2019-02-02T07:47:57.134Z,99634.36
2019-02-02T07:50:25.922Z,99632.72
2019-02-02T07:52:54.566Z,99630.85
2019-02-02T07:55:24.065Z,99626.02
2019-02-02T07:57:52.743Z,99634.56
2019-02-02T08:00:40.447Z,99629.72
2019-02-02T08:03:01.723Z,99622.77
2019-02-02T08:05:30.401Z,99632.23
2019-02-02T08:07:59.071Z,99626.56
2019-02-02T08:10:27.759Z,99620.86
2019-02-02T08:12:56.386Z,99629.81
2019-02-02T08:15:30.547Z,99620.66
2019-02-02T08:17:59.168Z,99619.13
2019-02-02T08:20:30.430Z,99638.59
2019-02-02T08:22:59.104Z,99641.58
2019-02-02T08:25:32.318Z,99629.54
2019-02-02T08:28:01.009Z,99635.34
2019-02-02T08:30:31.762Z,99630.41
2019-02-02T08:33:00.444Z,99624.29
2019-02-02T08:35:29.085Z,99628.94
2019-02-02T08:37:57.794Z,99635.90
2019-02-02T08:40:26.554Z,99638.36
2019-02-02T08:42:55.184Z,99628.47
2019-02-02T08:45:23.812Z,99628.37
2019-02-02T08:47:52.455Z,99629.28
2019-02-02T08:50:29.319Z,99626.08
2019-02-02T08:52:57.924Z,99626.95
2019-02-02T08:55:26.552Z,99619.43
2019-02-02T08:57:55.195Z,99617.34
2019-02-02T09:00:23.906Z,99618.03
2019-02-02T09:02:52.580Z,99616.34
2019-02-02T09:05:22.910Z,99609.47
2019-02-02T09:07:51.547Z,99600.77
2019-02-02T09:10:22.210Z,99604.67
2019-02-02T09:12:50.885Z,99603.42
2019-02-02T09:15:19.977Z,99617.03
2019-02-02T09:17:48.814Z,99616.10
2019-02-02T09:20:17.587Z,99610.78
2019-02-02T09:22:47.024Z,99600.58
2019-02-02T09:25:18.054Z,99602.67
2019-02-02T09:27:46.701Z,99605.20
2019-02-02T09:30:23.542Z,99595.41
2019-02-02T09:32:52.210Z,99598.89
2019-02-02T09:35:20.837Z,99595.50
2019-02-02T09:37:49.531Z,99585.08
2019-02-02T09:40:21.418Z,99572.36
2019-02-02T09:42:50.088Z,99563.55
2019-02-02T09:45:21.626Z,99554.98
2019-02-02T09:47:50.561Z,99546.59
2019-02-02T09:50:21.563Z,99535.37
2019-02-02T09:52:50.227Z,99531.03
2019-02-02T09:55:23.587Z,99523.08
2019-02-02T09:57:55.038Z,99523.88
2019-02-02T10:00:26.436Z,99523.50
2019-02-02T10:02:55.165Z,99527.75
2019-02-02T10:05:23.914Z,99524.16
2019-02-02T10:07:52.464Z,99517.44
2019-02-02T10:10:22.995Z,99516.08
2019-02-02T10:12:51.674Z,99505.34
2019-02-02T10:15:23.257Z,99506.29
2019-02-02T10:17:51.922Z,99496.36
2019-02-02T10:20:25.521Z,99499.88
2019-02-02T10:22:54.958Z,99497.92
2019-02-02T10:25:25.805Z,99501.31
2019-02-02T10:27:54.624Z,99505.59
2019-02-02T10:30:28.841Z,99494.42
2019-02-02T10:32:57.516Z,99487.64
2019-02-02T10:35:26.261Z,99485.06
2019-02-02T10:37:54.980Z,99478.16
2019-02-02T10:40:23.571Z,99478.16
2019-02-02T10:42:52.242Z,99464.36
2019-02-02T10:45:20.888Z,99471.93
2019-02-02T10:47:55.200Z,99469.73
2019-02-02T10:50:27.263Z,99454.72
2019-02-02T10:52:55.945Z,99465.86
2019-02-02T10:55:27.335Z,99459.87
2019-02-02T10:57:56.023Z,99455.28
2019-02-02T11:00:27.181Z,99457.48
2019-02-02T11:02:55.967Z,99460.34
2019-02-02T11:05:24.590Z,99450.92
2019-02-02T11:07:54.550Z,99455.23
2019-02-02T11:10:28.997Z,99448.20
2019-02-02T11:12:57.745Z,99446.81
2019-02-02T11:15:26.866Z,99445.60
2019-02-02T11:17:55.520Z,99450.95
2019-02-02T11:20:32.808Z,99453.76
2019-02-02T11:23:01.638Z,99448.00
2019-02-02T11:25:30.392Z,99444.96
2019-02-02T11:28:02.115Z,99447.23
2019-02-02T11:30:31.433Z,99441.23
2019-02-02T11:33:00.066Z,99441.23
2019-02-02T11:35:28.738Z,99436.91
2019-02-02T11:37:57.372Z,99438.98
2019-02-02T11:40:33.761Z,99433.02
2019-02-02T11:43:02.482Z,99436.44
2019-02-02T11:45:31.151Z,99433.84
2019-02-02T11:47:59.854Z,99424.56
2019-02-02T11:50:28.530Z,99414.90
2019-02-02T11:52:57.241Z,99405.77
2019-02-02T11:55:27.214Z,99410.46
2019-02-02T11:57:56.020Z,99410.09
2019-02-02T12:00:29.959Z,99405.39
2019-02-02T12:02:58.546Z,99402.48
2019-02-02T12:05:27.312Z,99398.69
2019-02-02T12:07:59.145Z,99394.13
2019-02-02T12:10:32.460Z,99398.23
2019-02-02T12:13:07.080Z,99401.50
2019-02-02T12:15:35.751Z,99398.57
2019-02-02T12:18:05.086Z,99393.40
2019-02-02T12:20:33.882Z,99389.91
2019-02-02T12:23:02.444Z,99398.20
2019-02-02T12:25:33.775Z,99388.42
2019-02-02T12:28:02.403Z,99378.86
2019-02-02T12:30:33.076Z,99389.30
2019-02-02T12:33:03.147Z,99391.48
2019-02-02T12:35:31.995Z,99388.76
2019-02-02T12:38:00.751Z,99393.84
2019-02-02T12:40:29.525Z,99391.63
2019-02-02T12:42:58.162Z,99393.00
2019-02-02T12:45:32.635Z,99404.20
2019-02-02T12:48:01.241Z,99398.22
2019-02-02T12:50:29.871Z,99409.53
2019-02-02T12:52:58.654Z,99407.77
2019-02-02T12:55:27.283Z,99411.23
2019-02-02T12:57:55.920Z,99406.91
2019-02-02T13:00:24.646Z,99407.83
2019-02-02T13:02:53.351Z,99398.71
2019-02-02T13:05:26.112Z,99396.83
2019-02-02T13:07:54.752Z,99391.43
2019-02-02T13:10:26.079Z,99383.92
2019-02-02T13:12:54.992Z,99376.05
2019-02-02T13:15:24.013Z,99378.23
2019-02-02T13:17:52.669Z,99371.55
2019-02-02T13:20:21.306Z,99375.73
2019-02-02T13:22:49.991Z,99383.69
2019-02-02T13:25:21.077Z,99386.83
2019-02-02T13:27:49.750Z,99382.34
2019-02-02T13:30:21.350Z,99390.97
2019-02-02T13:32:50.350Z,99390.84
2019-02-02T13:35:19.867Z,99380.18
2019-02-02T13:37:48.486Z,99388.51
2019-02-02T13:40:19.409Z,99386.61
2019-02-02T13:42:48.077Z,99395.04
2019-02-02T13:45:18.797Z,99387.84
2019-02-02T13:47:47.477Z,99382.78
2019-02-02T13:50:18.137Z,99387.19
2019-02-02T13:52:50.699Z,99397.17
2019-02-02T13:55:22.248Z,99405.00
2019-02-02T13:57:50.871Z,99395.86
2019-02-02T14:00:30.991Z,99403.97
2019-02-02T14:03:03.355Z,99414.37
2019-02-02T14:05:30.124Z,99424.80
2019-02-02T14:08:00.281Z,99417.84
2019-02-02T14:10:36.921Z,99414.87
2019-02-02T14:13:05.537Z,99412.22
2019-02-02T14:15:34.224Z,99406.70
2019-02-02T14:18:02.933Z,99408.60
2019-02-02T14:20:31.598Z,99407.95
2019-02-02T14:23:00.306Z,99414.41
2019-02-02T14:25:29.053Z,99415.68
2019-02-02T14:27:57.762Z,99407.22
2019-02-02T14:30:27.126Z,99413.76
2019-02-02T14:32:55.799Z,99412.42
2019-02-02T14:35:28.372Z,99418.33
2019-02-02T14:37:57.082Z,99419.84
2019-02-02T14:40:28.549Z,99416.22
2019-02-02T14:42:57.360Z,99427.88
2019-02-02T14:45:27.712Z,99425.03
2019-02-02T14:47:56.727Z,99422.96
2019-02-02T14:50:25.686Z,99418.67
2019-02-02T14:52:54.877Z,99418.86
2019-02-02T14:55:26.959Z,99421.91
2019-02-02T14:57:55.684Z,99417.13
2019-02-02T15:00:26.308Z,99421.94
2019-02-02T15:02:55.287Z,99409.95
2019-02-02T15:05:23.894Z,99409.91
2019-02-02T15:07:53.220Z,99408.47
2019-02-02T15:10:22.866Z,99409.91
2019-02-02T15:12:51.524Z,99401.47
2019-02-02T15:15:20.146Z,99409.83
2019-02-02T15:17:51.796Z,99397.80
2019-02-02T15:20:25.957Z,99399.08
2019-02-02T15:22:54.762Z,99401.70
2019-02-02T15:25:23.996Z,99397.61
2019-02-02T15:27:55.400Z,99404.67
2019-02-02T15:30:32.788Z,99407.95
2019-02-02T15:33:01.606Z,99412.39
2019-02-02T15:35:30.341Z,99405.44
2019-02-02T15:38:02.143Z,99397.86
2019-02-02T15:40:32.295Z,99402.91
2019-02-02T15:43:04.249Z,99400.25
2019-02-02T15:45:33.283Z,99403.05
2019-02-02T15:48:01.960Z,99403.77
2019-02-02T15:50:30.629Z,99410.33
2019-02-02T15:52:59.190Z,99408.84
2019-02-02T15:55:27.951Z,99411.23
2019-02-02T15:57:56.709Z,99410.40
2019-02-02T16:00:33.764Z,99412.30
2019-02-02T16:03:05.232Z,99406.80
2019-02-02T16:05:35.642Z,99406.78
2019-02-02T16:08:07.360Z,99410.33
2019-02-02T16:10:36.227Z,99402.83
2019-02-02T16:13:05.236Z,99404.11
2019-02-02T16:15:34.693Z,99405.86
2019-02-02T16:18:03.457Z,99403.68
2019-02-02T16:20:37.754Z,99410.22
2019-02-02T16:23:09.420Z,99416.43
2019-02-02T16:25:38.133Z,99419.66
2019-02-02T16:28:07.011Z,99425.44
2019-02-02T16:30:35.634Z,99419.42
2019-02-02T16:33:04.463Z,99430.83
2019-02-02T16:35:35.932Z,99436.51
2019-02-02T16:38:04.696Z,99433.95
2019-02-02T16:40:33.387Z,99438.95
2019-02-02T16:43:02.811Z,99431.53
2019-02-02T16:45:36.555Z,99422.59
2019-02-02T16:48:05.851Z,99425.88
2019-02-02T16:50:37.479Z,99425.59
2019-02-02T16:53:11.943Z,99429.28
2019-02-02T16:55:47.048Z,99432.22
2019-02-02T16:58:15.732Z,99435.77
2019-02-02T17:00:44.418Z,99440.38
2019-02-02T17:03:12.975Z,99440.19
2019-02-02T17:05:41.593Z,99432.73
2019-02-02T17:08:10.521Z,99427.44
2019-02-02T17:10:39.217Z,99422.34
2019-02-02T17:13:08.106Z,99424.08
2019-02-02T17:15:39.986Z,99426.77
2019-02-02T17:18:09.398Z,99436.73
2019-02-02T17:20:45.130Z,99441.69
2019-02-02T17:23:13.686Z,99437.30
2019-02-02T17:25:42.443Z,99429.35
2019-02-02T17:28:11.176Z,99434.92
2019-02-02T17:30:43.322Z,99432.77
2019-02-02T17:33:13.797Z,99430.53
2019-02-02T17:35:42.531Z,99441.53
2019-02-02T17:38:11.230Z,99434.73
2019-02-02T17:40:39.793Z,99433.67
2019-02-02T17:43:08.477Z,99435.53
2019-02-02T17:45:37.100Z,99435.56
2019-02-02T17:48:13.100Z,99436.85
2019-02-02T17:50:40.681Z,99433.84
2019-02-02T17:53:10.178Z,99436.03
2019-02-02T17:55:44.776Z,99422.16
2019-02-02T17:58:16.462Z,99426.91
2019-02-02T18:00:49.941Z,99433.23
2019-02-02T18:03:18.742Z,99422.44
2019-02-02T18:05:47.435Z,99410.86
2019-02-02T18:08:15.976Z,99409.16
2019-02-02T18:10:44.578Z,99415.55
2019-02-02T18:13:19.020Z,99421.39
2019-02-02T18:15:47.648Z,99424.38
2019-02-02T18:18:16.278Z,99421.14
2019-02-02T18:20:44.915Z,99409.62
2019-02-02T18:23:18.323Z,99388.98
2019-02-02T18:25:46.796Z,99398.91
2019-02-02T18:28:15.408Z,99417.57
2019-02-02T18:30:44.103Z,99421.14
2019-02-02T18:33:12.760Z,99426.70
2019-02-02T18:35:41.419Z,99433.91
2019-02-02T18:38:10.114Z,99412.01
2019-02-02T18:40:40.208Z,99422.91
2019-02-02T18:43:10.125Z,99423.23
2019-02-02T18:45:41.494Z,99432.11
2019-02-02T18:48:10.124Z,99446.30
2019-02-02T18:50:38.788Z,99451.94
2019-02-02T18:53:07.461Z,99445.61
2019-02-02T18:55:48.187Z,99437.13
2019-02-02T18:58:16.870Z,99452.23
2019-02-02T19:00:45.631Z,99450.79
2019-02-02T19:03:14.320Z,99453.50
2019-02-02T19:05:45.952Z,99466.06
2019-02-02T19:08:14.631Z,99459.70
2019-02-02T19:10:44.825Z,99457.58
2019-02-02T19:13:13.476Z,99457.30
2019-02-02T19:15:42.156Z,99467.05
2019-02-02T19:18:11.469Z,99457.19
2019-02-02T19:20:40.068Z,99464.41
2019-02-02T19:23:08.750Z,99458.66
2019-02-02T19:25:37.986Z,99460.34
2019-02-02T19:28:06.921Z,99458.90
2019-02-02T19:30:36.194Z,99469.77
2019-02-02T19:33:05.626Z,99464.77
2019-02-02T19:35:34.186Z,99463.25
2019-02-02T19:38:02.842Z,99457.42
2019-02-02T19:40:34.191Z,99457.95
2019-02-02T19:43:05.722Z,99451.71
2019-02-02T19:45:34.342Z,99442.70
2019-02-02T19:48:03.011Z,99453.40
2019-02-02T19:50:31.578Z,99445.95
2019-02-02T19:53:00.349Z,99447.13
2019-02-02T19:55:28.913Z,99446.36
2019-02-02T19:58:00.328Z,99445.02
2019-02-02T20:00:31.303Z,99453.03
2019-02-02T20:03:00.164Z,99450.11
2019-02-02T20:05:29.342Z,99452.97
2019-02-02T20:07:58.263Z,99448.87
2019-02-02T20:10:26.879Z,99465.19
2019-02-02T20:12:55.506Z,99454.65
2019-02-02T20:15:26.090Z,99450.32
2019-02-02T20:17:54.832Z,99460.41
2019-02-02T20:20:27.797Z,99463.96
2019-02-02T20:22:56.955Z,99458.41
2019-02-02T20:25:25.696Z,99466.28
2019-02-02T20:27:54.335Z,99476.24
2019-02-02T20:30:28.842Z,99468.02
2019-02-02T20:32:57.643Z,99469.00
2019-02-02T20:35:26.280Z,99467.73
2019-02-02T20:37:54.918Z,99473.26
2019-02-02T20:40:25.941Z,99476.70
2019-02-02T20:42:54.881Z,99474.60
2019-02-02T20:45:25.865Z,99477.72
2019-02-02T20:47:54.475Z,99475.13
2019-02-02T20:50:23.526Z,99472.08
2019-02-02T20:52:54.915Z,99478.13
2019-02-02T20:55:25.951Z,99471.69
2019-02-02T20:57:55.040Z,99468.30
2019-02-02T21:00:28.927Z,99468.70
2019-02-02T21:02:57.723Z,99469.59
2019-02-02T21:05:26.719Z,99475.58
2019-02-02T21:07:55.343Z,99485.55
2019-02-02T21:10:25.401Z,99478.16
2019-02-02T21:12:54.703Z,99473.05
2019-02-02T21:15:23.440Z,99468.74
2019-02-02T21:17:52.198Z,99476.95
2019-02-02T21:20:30.146Z,99473.88
2019-02-02T21:22:58.809Z,99465.17
2019-02-02T21:25:27.499Z,99477.69
2019-02-02T21:27:56.234Z,99472.50
2019-02-02T21:30:27.110Z,99474.70
2019-02-02T21:32:55.785Z,99469.97
2019-02-02T21:35:24.796Z,99473.91
2019-02-02T21:37:56.607Z,99477.78
2019-02-02T21:40:27.252Z,99470.45
2019-02-02T21:43:00.376Z,99473.47
2019-02-02T21:45:29.037Z,99459.25
2019-02-02T21:47:57.681Z,99468.81
2019-02-02T21:50:26.967Z,99455.39
2019-02-02T21:52:55.808Z,99469.68
2019-02-02T21:55:29.025Z,99467.10
2019-02-02T21:57:57.709Z,99461.09
2019-02-02T22:00:31.557Z,99461.57
2019-02-02T22:03:00.237Z,99457.23
2019-02-02T22:05:28.872Z,99461.58
2019-02-02T22:07:57.505Z,99457.70
2019-02-02T22:10:26.176Z,99463.33
2019-02-02T22:12:55.191Z,99462.86
2019-02-02T22:15:28.429Z,99458.62
2019-02-02T22:17:57.060Z,99453.43
2019-02-02T22:20:25.678Z,99462.89
2019-02-02T22:22:54.302Z,99468.05
2019-02-02T22:25:32.055Z,99451.69
2019-02-02T22:28:00.693Z,99467.64
2019-02-02T22:30:31.157Z,99467.62
2019-02-02T22:33:00.008Z,99470.63
2019-02-02T22:35:28.646Z,99473.63
2019-02-02T22:37:57.624Z,99485.70
2019-02-02T22:40:27.912Z,99490.02
2019-02-02T22:42:56.853Z,99483.56
2019-02-02T22:45:28.406Z,99492.16
2019-02-02T22:47:57.091Z,99486.56
2019-02-02T22:50:27.620Z,99483.13
2019-02-02T22:52:56.355Z,99477.08
2019-02-02T22:55:25.648Z,99486.98
2019-02-02T22:57:54.468Z,99489.14
2019-02-02T23:00:59.433Z,99494.73
2019-02-02T23:03:34.153Z,99489.97
2019-02-02T23:06:23.878Z,99482.67
2019-02-02T23:09:16.243Z,99488.27
2019-02-02T23:11:47.857Z,99491.31
2019-02-02T23:14:43.734Z,99497.73
2019-02-02T23:17:12.505Z,99489.11
2019-02-02T23:19:41.135Z,99492.55
2019-02-02T23:22:12.480Z,99474.44
2019-02-02T23:24:41.050Z,99482.24
2019-02-02T23:27:09.679Z,99474.91
2019-02-02T23:29:38.350Z,99481.80
2019-02-02T23:32:09.790Z,99492.58
2019-02-02T23:34:38.477Z,99493.45
2019-02-02T23:37:07.211Z,99483.89
2019-02-02T23:39:40.080Z,99484.79
2019-02-02T23:42:08.689Z,99479.98
2019-02-02T23:44:37.384Z,99469.28
2019-02-02T23:47:06.012Z,99473.14
2019-02-02T23:49:34.889Z,99477.52
2019-02-02T23:52:03.540Z,99485.68
2019-02-02T23:54:32.112Z,99481.35
2019-02-02T23:57:00.810Z,99475.36
2019-02-02T23:59:29.439Z,99477.53
